sensor_id;sensor_type;location;lat;lon;timestamp;temperature;humidity
24158;DHT22;12316;50.904;4.200;2023-07-29T00:01:51;20.50;99.90
24158;DHT22;12316;50.904;4.200;2023-07-29T00:04:17;20.50;99.90
24158;DHT22;12316;50.904;4.200;2023-07-29T00:06:42;20.40;99.90
24158;DHT22;12316;50.904;4.200;2023-07-29T00:09:08;20.30;99.90
24158;DHT22;12316;50.904;4.200;2023-07-29T00:11:34;20.30;99.90
24158;DHT22;12316;50.904;4.200;2023-07-29T00:14:01;20.30;99.90
24158;DHT22;12316;50.904;4.200;2023-07-29T00:16:26;20.20;99.90
24158;DHT22;12316;50.904;4.200;2023-07-29T00:18:53;20.10;99.90
24158;DHT22;12316;50.904;4.200;2023-07-29T00:21:19;20.10;99.90
24158;DHT22;12316;50.904;4.200;2023-07-29T00:23:45;20.10;99.90
24158;DHT22;12316;50.904;4.200;2023-07-29T00:26:10;20.10;99.90
24158;DHT22;12316;50.904;4.200;2023-07-29T00:28:36;20.00;99.90
24158;DHT22;12316;50.904;4.200;2023-07-29T00:31:02;20.10;99.90
24158;DHT22;12316;50.904;4.200;2023-07-29T00:33:28;20.10;99.90
24158;DHT22;12316;50.904;4.200;2023-07-29T00:35:53;20.00;99.90
24158;DHT22;12316;50.904;4.200;2023-07-29T00:38:19;20.00;99.90
24158;DHT22;12316;50.904;4.200;2023-07-29T00:40:46;20.10;99.90
24158;DHT22;12316;50.904;4.200;2023-07-29T00:43:11;20.00;99.90
24158;DHT22;12316;50.904;4.200;2023-07-29T00:45:38;19.80;99.90
24158;DHT22;12316;50.904;4.200;2023-07-29T00:48:04;19.80;99.90
24158;DHT22;12316;50.904;4.200;2023-07-29T00:50:31;19.70;99.90
24158;DHT22;12316;50.904;4.200;2023-07-29T00:52:58;19.70;99.90
24158;DHT22;12316;50.904;4.200;2023-07-29T00:55:24;19.60;99.90
24158;DHT22;12316;50.904;4.200;2023-07-29T00:57:51;19.60;99.90
24158;DHT22;12316;50.904;4.200;2023-07-29T01:00:20;19.60;99.90
24158;DHT22;12316;50.904;4.200;2023-07-29T01:02:46;19.50;99.90
24158;DHT22;12316;50.904;4.200;2023-07-29T01:05:13;19.50;99.90
24158;DHT22;12316;50.904;4.200;2023-07-29T01:18:21;19.20;99.90
24158;DHT22;12316;50.904;4.200;2023-07-29T01:20:47;19.30;99.90
24158;DHT22;12316;50.904;4.200;2023-07-29T01:23:15;19.30;99.90
24158;DHT22;12316;50.904;4.200;2023-07-29T01:25:41;19.40;99.90
24158;DHT22;12316;50.904;4.200;2023-07-29T01:28:07;19.40;99.90
24158;DHT22;12316;50.904;4.200;2023-07-29T01:30:39;19.40;99.90
24158;DHT22;12316;50.904;4.200;2023-07-29T01:35:55;19.40;99.90
24158;DHT22;12316;50.904;4.200;2023-07-29T01:38:28;19.30;99.90
24158;DHT22;12316;50.904;4.200;2023-07-29T01:40:59;19.30;99.90
24158;DHT22;12316;50.904;4.200;2023-07-29T01:43:30;19.30;99.90
24158;DHT22;12316;50.904;4.200;2023-07-29T01:45:56;19.20;99.90
24158;DHT22;12316;50.904;4.200;2023-07-29T01:48:22;19.10;99.90
24158;DHT22;12316;50.904;4.200;2023-07-29T01:50:47;19.00;99.90
24158;DHT22;12316;50.904;4.200;2023-07-29T01:53:13;18.90;99.90
24158;DHT22;12316;50.904;4.200;2023-07-29T01:55:39;18.80;99.90
24158;DHT22;12316;50.904;4.200;2023-07-29T01:58:05;18.80;99.90
24158;DHT22;12316;50.904;4.200;2023-07-29T02:00:30;18.80;99.90
24158;DHT22;12316;50.904;4.200;2023-07-29T02:02:56;18.80;99.90
24158;DHT22;12316;50.904;4.200;2023-07-29T02:05:21;18.80;99.90
24158;DHT22;12316;50.904;4.200;2023-07-29T02:07:47;18.70;99.90
24158;DHT22;12316;50.904;4.200;2023-07-29T02:10:14;18.70;99.90
24158;DHT22;12316;50.904;4.200;2023-07-29T02:12:40;18.70;99.90
24158;DHT22;12316;50.904;4.200;2023-07-29T02:15:06;18.70;99.90
24158;DHT22;12316;50.904;4.200;2023-07-29T02:17:31;18.60;99.90
24158;DHT22;12316;50.904;4.200;2023-07-29T02:19:57;18.70;99.90
24158;DHT22;12316;50.904;4.200;2023-07-29T02:22:22;18.70;99.90
24158;DHT22;12316;50.904;4.200;2023-07-29T02:24:48;18.70;99.90
24158;DHT22;12316;50.904;4.200;2023-07-29T02:27:14;18.60;99.90
24158;DHT22;12316;50.904;4.200;2023-07-29T02:29:39;18.40;99.90
24158;DHT22;12316;50.904;4.200;2023-07-29T02:32:05;18.60;99.90
24158;DHT22;12316;50.904;4.200;2023-07-29T02:34:31;18.60;99.90
24158;DHT22;12316;50.904;4.200;2023-07-29T02:36:56;18.60;99.90
24158;DHT22;12316;50.904;4.200;2023-07-29T02:39:22;18.70;99.90
24158;DHT22;12316;50.904;4.200;2023-07-29T02:41:49;18.60;99.90
24158;DHT22;12316;50.904;4.200;2023-07-29T02:44:15;18.60;99.90
24158;DHT22;12316;50.904;4.200;2023-07-29T02:46:41;18.70;99.90
24158;DHT22;12316;50.904;4.200;2023-07-29T02:49:07;18.60;99.90
24158;DHT22;12316;50.904;4.200;2023-07-29T02:51:32;18.70;99.90
24158;DHT22;12316;50.904;4.200;2023-07-29T02:53:58;18.60;99.90
24158;DHT22;12316;50.904;4.200;2023-07-29T02:56:24;18.60;99.90
24158;DHT22;12316;50.904;4.200;2023-07-29T02:58:49;18.60;99.90
24158;DHT22;12316;50.904;4.200;2023-07-29T03:01:17;18.40;99.90
24158;DHT22;12316;50.904;4.200;2023-07-29T03:03:43;18.50;99.90
24158;DHT22;12316;50.904;4.200;2023-07-29T03:06:10;18.50;99.90
24158;DHT22;12316;50.904;4.200;2023-07-29T03:08:36;18.50;99.90
24158;DHT22;12316;50.904;4.200;2023-07-29T03:11:07;18.50;99.90
24158;DHT22;12316;50.904;4.200;2023-07-29T03:13:33;18.40;99.90
24158;DHT22;12316;50.904;4.200;2023-07-29T03:16:09;18.40;99.90
24158;DHT22;12316;50.904;4.200;2023-07-29T03:18:35;18.40;99.90
24158;DHT22;12316;50.904;4.200;2023-07-29T03:21:01;18.40;99.90
24158;DHT22;12316;50.904;4.200;2023-07-29T03:23:28;18.40;99.90
24158;DHT22;12316;50.904;4.200;2023-07-29T03:25:58;18.40;99.90
24158;DHT22;12316;50.904;4.200;2023-07-29T03:28:26;18.40;99.90
24158;DHT22;12316;50.904;4.200;2023-07-29T03:30:56;18.40;99.90
24158;DHT22;12316;50.904;4.200;2023-07-29T03:33:22;18.30;99.90
24158;DHT22;12316;50.904;4.200;2023-07-29T03:35:48;18.40;99.90
24158;DHT22;12316;50.904;4.200;2023-07-29T03:38:14;18.40;99.90
24158;DHT22;12316;50.904;4.200;2023-07-29T03:40:40;18.40;99.90
24158;DHT22;12316;50.904;4.200;2023-07-29T03:43:06;18.30;99.90
24158;DHT22;12316;50.904;4.200;2023-07-29T03:45:32;18.40;99.90
24158;DHT22;12316;50.904;4.200;2023-07-29T03:47:58;18.40;99.90
24158;DHT22;12316;50.904;4.200;2023-07-29T03:50:24;18.40;99.90
24158;DHT22;12316;50.904;4.200;2023-07-29T03:52:50;18.50;99.90
24158;DHT22;12316;50.904;4.200;2023-07-29T03:55:16;18.60;99.90
24158;DHT22;12316;50.904;4.200;2023-07-29T03:57:41;18.50;99.90
24158;DHT22;12316;50.904;4.200;2023-07-29T04:00:07;18.40;99.90
24158;DHT22;12316;50.904;4.200;2023-07-29T04:02:34;18.30;99.90
24158;DHT22;12316;50.904;4.200;2023-07-29T04:05:03;18.40;99.90
24158;DHT22;12316;50.904;4.200;2023-07-29T04:07:29;18.40;99.90
24158;DHT22;12316;50.904;4.200;2023-07-29T04:09:55;18.30;99.90
24158;DHT22;12316;50.904;4.200;2023-07-29T04:12:22;18.40;99.90
24158;DHT22;12316;50.904;4.200;2023-07-29T04:14:48;18.40;99.90
24158;DHT22;12316;50.904;4.200;2023-07-29T04:17:14;18.40;99.90
24158;DHT22;12316;50.904;4.200;2023-07-29T04:19:39;18.40;99.90
24158;DHT22;12316;50.904;4.200;2023-07-29T04:22:05;18.40;99.90
24158;DHT22;12316;50.904;4.200;2023-07-29T04:24:31;18.40;99.90
24158;DHT22;12316;50.904;4.200;2023-07-29T04:26:57;18.40;99.90
24158;DHT22;12316;50.904;4.200;2023-07-29T04:29:22;18.40;99.90
24158;DHT22;12316;50.904;4.200;2023-07-29T04:31:52;18.40;99.90
24158;DHT22;12316;50.904;4.200;2023-07-29T04:34:18;18.50;99.90
24158;DHT22;12316;50.904;4.200;2023-07-29T04:36:45;18.40;99.90
24158;DHT22;12316;50.904;4.200;2023-07-29T04:39:11;18.50;99.90
24158;DHT22;12316;50.904;4.200;2023-07-29T04:41:36;18.50;99.90
24158;DHT22;12316;50.904;4.200;2023-07-29T04:44:02;18.50;99.90
24158;DHT22;12316;50.904;4.200;2023-07-29T04:46:28;18.50;99.90
24158;DHT22;12316;50.904;4.200;2023-07-29T04:48:53;18.50;99.90
24158;DHT22;12316;50.904;4.200;2023-07-29T04:51:19;18.50;99.90
24158;DHT22;12316;50.904;4.200;2023-07-29T04:53:44;18.40;99.90
24158;DHT22;12316;50.904;4.200;2023-07-29T04:56:10;18.50;99.90
24158;DHT22;12316;50.904;4.200;2023-07-29T04:58:36;18.50;99.90
24158;DHT22;12316;50.904;4.200;2023-07-29T05:01:03;18.60;99.90
24158;DHT22;12316;50.904;4.200;2023-07-29T05:03:29;18.60;99.90
24158;DHT22;12316;50.904;4.200;2023-07-29T05:05:56;18.70;99.90
24158;DHT22;12316;50.904;4.200;2023-07-29T05:08:22;18.60;99.90
24158;DHT22;12316;50.904;4.200;2023-07-29T05:10:51;18.70;99.90
24158;DHT22;12316;50.904;4.200;2023-07-29T05:13:18;18.70;99.90
24158;DHT22;12316;50.904;4.200;2023-07-29T05:15:44;18.60;99.90
24158;DHT22;12316;50.904;4.200;2023-07-29T05:18:11;18.60;99.90
24158;DHT22;12316;50.904;4.200;2023-07-29T05:20:36;18.50;99.90
24158;DHT22;12316;50.904;4.200;2023-07-29T05:23:02;18.50;99.90
24158;DHT22;12316;50.904;4.200;2023-07-29T05:25:29;18.50;99.90
24158;DHT22;12316;50.904;4.200;2023-07-29T05:27:54;18.60;99.90
24158;DHT22;12316;50.904;4.200;2023-07-29T05:30:20;18.90;99.90
24158;DHT22;12316;50.904;4.200;2023-07-29T05:32:45;19.10;99.90
24158;DHT22;12316;50.904;4.200;2023-07-29T05:35:11;19.50;99.90
24158;DHT22;12316;50.904;4.200;2023-07-29T05:37:40;19.90;99.90
24158;DHT22;12316;50.904;4.200;2023-07-29T05:40:06;20.40;99.90
24158;DHT22;12316;50.904;4.200;2023-07-29T05:42:33;20.70;99.90
24158;DHT22;12316;50.904;4.200;2023-07-29T05:44:59;21.00;99.90
24158;DHT22;12316;50.904;4.200;2023-07-29T05:47:25;21.20;99.90
24158;DHT22;12316;50.904;4.200;2023-07-29T05:49:51;21.20;99.90
24158;DHT22;12316;50.904;4.200;2023-07-29T05:52:16;21.00;99.90
24158;DHT22;12316;50.904;4.200;2023-07-29T05:54:42;20.90;99.90
24158;DHT22;12316;50.904;4.200;2023-07-29T05:57:11;20.90;99.90
24158;DHT22;12316;50.904;4.200;2023-07-29T05:59:37;21.30;99.90
24158;DHT22;12316;50.904;4.200;2023-07-29T06:02:03;21.60;99.90
24158;DHT22;12316;50.904;4.200;2023-07-29T06:04:29;21.90;99.90
24158;DHT22;12316;50.904;4.200;2023-07-29T06:06:54;22.20;99.90
24158;DHT22;12316;50.904;4.200;2023-07-29T06:09:21;22.40;99.90
24158;DHT22;12316;50.904;4.200;2023-07-29T06:11:47;22.70;99.90
24158;DHT22;12316;50.904;4.200;2023-07-29T06:14:12;23.10;99.90
24158;DHT22;12316;50.904;4.200;2023-07-29T06:16:38;23.40;99.90
24158;DHT22;12316;50.904;4.200;2023-07-29T06:19:04;23.30;99.90
24158;DHT22;12316;50.904;4.200;2023-07-29T06:21:30;23.50;99.90
24158;DHT22;12316;50.904;4.200;2023-07-29T06:23:55;23.40;99.90
24158;DHT22;12316;50.904;4.200;2023-07-29T06:26:21;23.60;99.90
24158;DHT22;12316;50.904;4.200;2023-07-29T06:28:46;23.60;99.90
24158;DHT22;12316;50.904;4.200;2023-07-29T06:31:12;23.50;99.90
24158;DHT22;12316;50.904;4.200;2023-07-29T06:33:37;23.40;99.90
24158;DHT22;12316;50.904;4.200;2023-07-29T06:36:03;23.30;99.90
24158;DHT22;12316;50.904;4.200;2023-07-29T06:38:29;23.20;99.90
24158;DHT22;12316;50.904;4.200;2023-07-29T06:40:55;23.50;99.90
24158;DHT22;12316;50.904;4.200;2023-07-29T06:43:20;23.50;99.90
24158;DHT22;12316;50.904;4.200;2023-07-29T06:45:46;23.10;99.90
24158;DHT22;12316;50.904;4.200;2023-07-29T06:48:12;23.00;99.90
24158;DHT22;12316;50.904;4.200;2023-07-29T06:50:37;23.20;99.90
24158;DHT22;12316;50.904;4.200;2023-07-29T06:53:04;23.20;99.90
24158;DHT22;12316;50.904;4.200;2023-07-29T06:55:30;22.70;99.90
24158;DHT22;12316;50.904;4.200;2023-07-29T06:57:55;22.60;99.90
24158;DHT22;12316;50.904;4.200;2023-07-29T07:00:21;22.60;99.90
24158;DHT22;12316;50.904;4.200;2023-07-29T07:02:48;22.70;99.90
24158;DHT22;12316;50.904;4.200;2023-07-29T07:05:14;22.70;99.90
24158;DHT22;12316;50.904;4.200;2023-07-29T07:07:40;22.50;99.90
24158;DHT22;12316;50.904;4.200;2023-07-29T07:10:06;22.30;99.90
24158;DHT22;12316;50.904;4.200;2023-07-29T07:12:32;22.20;99.90
24158;DHT22;12316;50.904;4.200;2023-07-29T07:14:57;21.90;99.90
24158;DHT22;12316;50.904;4.200;2023-07-29T07:17:23;21.80;99.90
24158;DHT22;12316;50.904;4.200;2023-07-29T07:19:49;21.60;99.90
24158;DHT22;12316;50.904;4.200;2023-07-29T07:22:15;21.40;99.90
24158;DHT22;12316;50.904;4.200;2023-07-29T07:24:41;21.40;99.90
24158;DHT22;12316;50.904;4.200;2023-07-29T07:27:07;21.60;99.90
24158;DHT22;12316;50.904;4.200;2023-07-29T07:29:32;21.60;99.90
24158;DHT22;12316;50.904;4.200;2023-07-29T07:31:58;21.60;99.90
24158;DHT22;12316;50.904;4.200;2023-07-29T07:34:24;21.60;99.90
24158;DHT22;12316;50.904;4.200;2023-07-29T07:36:50;21.90;99.90
24158;DHT22;12316;50.904;4.200;2023-07-29T07:39:15;22.10;99.90
24158;DHT22;12316;50.904;4.200;2023-07-29T07:41:42;22.30;99.90
24158;DHT22;12316;50.904;4.200;2023-07-29T07:44:08;22.40;99.90
24158;DHT22;12316;50.904;4.200;2023-07-29T07:46:34;22.70;99.90
24158;DHT22;12316;50.904;4.200;2023-07-29T07:48:59;23.00;99.90
24158;DHT22;12316;50.904;4.200;2023-07-29T07:51:25;22.90;99.90
24158;DHT22;12316;50.904;4.200;2023-07-29T07:53:51;23.00;99.90
24158;DHT22;12316;50.904;4.200;2023-07-29T07:56:17;22.80;99.90
24158;DHT22;12316;50.904;4.200;2023-07-29T07:58:43;22.60;99.90
24158;DHT22;12316;50.904;4.200;2023-07-29T08:01:09;22.60;99.90
24158;DHT22;12316;50.904;4.200;2023-07-29T08:03:35;22.80;99.90
24158;DHT22;12316;50.904;4.200;2023-07-29T08:06:01;23.00;99.90
24158;DHT22;12316;50.904;4.200;2023-07-29T08:08:28;23.10;99.90
24158;DHT22;12316;50.904;4.200;2023-07-29T08:10:55;23.30;99.90
24158;DHT22;12316;50.904;4.200;2023-07-29T08:13:22;23.50;99.90
24158;DHT22;12316;50.904;4.200;2023-07-29T08:15:49;23.40;99.90
24158;DHT22;12316;50.904;4.200;2023-07-29T08:18:15;23.60;99.90
24158;DHT22;12316;50.904;4.200;2023-07-29T08:20:41;23.70;99.90
24158;DHT22;12316;50.904;4.200;2023-07-29T08:23:07;23.60;99.90
24158;DHT22;12316;50.904;4.200;2023-07-29T08:25:33;23.60;99.90
24158;DHT22;12316;50.904;4.200;2023-07-29T08:27:58;23.60;99.90
24158;DHT22;12316;50.904;4.200;2023-07-29T08:30:24;23.50;99.90
24158;DHT22;12316;50.904;4.200;2023-07-29T08:32:49;23.30;99.90
24158;DHT22;12316;50.904;4.200;2023-07-29T08:35:15;23.20;99.90
24158;DHT22;12316;50.904;4.200;2023-07-29T08:37:41;23.10;99.90
24158;DHT22;12316;50.904;4.200;2023-07-29T08:40:07;23.00;99.90
24158;DHT22;12316;50.904;4.200;2023-07-29T08:42:34;23.10;99.90
24158;DHT22;12316;50.904;4.200;2023-07-29T08:45:08;23.20;99.90
24158;DHT22;12316;50.904;4.200;2023-07-29T08:47:34;23.40;99.90
24158;DHT22;12316;50.904;4.200;2023-07-29T08:50:01;23.70;99.90
24158;DHT22;12316;50.904;4.200;2023-07-29T08:52:29;23.80;99.90
24158;DHT22;12316;50.904;4.200;2023-07-29T08:54:57;23.70;99.90
24158;DHT22;12316;50.904;4.200;2023-07-29T08:57:23;23.80;99.90
24158;DHT22;12316;50.904;4.200;2023-07-29T08:59:49;24.00;99.90
24158;DHT22;12316;50.904;4.200;2023-07-29T09:02:15;24.10;99.90
24158;DHT22;12316;50.904;4.200;2023-07-29T09:04:41;24.40;99.90
24158;DHT22;12316;50.904;4.200;2023-07-29T09:07:07;24.60;99.90
24158;DHT22;12316;50.904;4.200;2023-07-29T09:09:33;24.90;99.90
24158;DHT22;12316;50.904;4.200;2023-07-29T09:11:59;25.20;99.90
24158;DHT22;12316;50.904;4.200;2023-07-29T09:14:25;25.50;99.90
24158;DHT22;12316;50.904;4.200;2023-07-29T09:16:51;25.80;99.90
24158;DHT22;12316;50.904;4.200;2023-07-29T09:19:16;25.90;99.90
24158;DHT22;12316;50.904;4.200;2023-07-29T09:21:42;25.80;99.90
24158;DHT22;12316;50.904;4.200;2023-07-29T09:24:08;25.60;99.90
24158;DHT22;12316;50.904;4.200;2023-07-29T09:26:34;25.40;99.90
24158;DHT22;12316;50.904;4.200;2023-07-29T09:29:00;25.20;99.90
24158;DHT22;12316;50.904;4.200;2023-07-29T09:31:27;25.10;99.90
24158;DHT22;12316;50.904;4.200;2023-07-29T09:34:01;25.20;99.90
24158;DHT22;12316;50.904;4.200;2023-07-29T09:36:27;25.30;99.90
24158;DHT22;12316;50.904;4.200;2023-07-29T09:38:56;25.50;99.90
24158;DHT22;12316;50.904;4.200;2023-07-29T09:41:26;25.40;99.90
24158;DHT22;12316;50.904;4.200;2023-07-29T09:44:00;25.40;99.90
24158;DHT22;12316;50.904;4.200;2023-07-29T09:46:36;25.10;99.90
24158;DHT22;12316;50.904;4.200;2023-07-29T09:49:03;25.10;99.90
24158;DHT22;12316;50.904;4.200;2023-07-29T09:51:29;24.60;99.90
24158;DHT22;12316;50.904;4.200;2023-07-29T09:53:55;24.30;99.90
24158;DHT22;12316;50.904;4.200;2023-07-29T09:56:26;24.30;99.90
24158;DHT22;12316;50.904;4.200;2023-07-29T09:58:52;24.40;99.90
24158;DHT22;12316;50.904;4.200;2023-07-29T10:01:18;24.40;99.90
24158;DHT22;12316;50.904;4.200;2023-07-29T10:03:44;24.50;99.90
24158;DHT22;12316;50.904;4.200;2023-07-29T10:06:11;24.60;99.90
24158;DHT22;12316;50.904;4.200;2023-07-29T10:08:39;24.80;99.90
24158;DHT22;12316;50.904;4.200;2023-07-29T10:11:07;25.30;99.90
24158;DHT22;12316;50.904;4.200;2023-07-29T10:13:33;25.60;99.90
24158;DHT22;12316;50.904;4.200;2023-07-29T10:16:00;25.70;99.90
24158;DHT22;12316;50.904;4.200;2023-07-29T10:18:29;25.70;99.90
24158;DHT22;12316;50.904;4.200;2023-07-29T10:20:58;25.70;99.90
24158;DHT22;12316;50.904;4.200;2023-07-29T10:23:25;25.40;99.90
24158;DHT22;12316;50.904;4.200;2023-07-29T10:26:10;25.10;99.90
24158;DHT22;12316;50.904;4.200;2023-07-29T10:28:43;24.90;99.90
24158;DHT22;12316;50.904;4.200;2023-07-29T10:31:11;25.00;99.90
24158;DHT22;12316;50.904;4.200;2023-07-29T10:33:38;25.20;99.90
24158;DHT22;12316;50.904;4.200;2023-07-29T10:36:04;25.40;99.90
24158;DHT22;12316;50.904;4.200;2023-07-29T10:38:30;25.60;99.90
24158;DHT22;12316;50.904;4.200;2023-07-29T10:40:57;25.70;99.90
24158;DHT22;12316;50.904;4.200;2023-07-29T10:43:33;25.70;99.90
24158;DHT22;12316;50.904;4.200;2023-07-29T10:48:42;25.70;99.90
24158;DHT22;12316;50.904;4.200;2023-07-29T10:51:28;25.30;99.90
24158;DHT22;12316;50.904;4.200;2023-07-29T10:54:02;25.50;99.90
24158;DHT22;12316;50.904;4.200;2023-07-29T10:56:32;25.40;99.90
24158;DHT22;12316;50.904;4.200;2023-07-29T10:59:03;24.80;99.90
24158;DHT22;12316;50.904;4.200;2023-07-29T11:01:53;24.80;99.90
24158;DHT22;12316;50.904;4.200;2023-07-29T11:12:51;23.90;99.90
24158;DHT22;12316;50.904;4.200;2023-07-29T11:15:28;23.40;99.90
24158;DHT22;12316;50.904;4.200;2023-07-29T11:20:30;23.30;99.90
24158;DHT22;12316;50.904;4.200;2023-07-29T11:22:57;23.50;99.90
24158;DHT22;12316;50.904;4.200;2023-07-29T11:25:24;23.60;99.90
24158;DHT22;12316;50.904;4.200;2023-07-29T11:27:55;24.00;99.90
24158;DHT22;12316;50.904;4.200;2023-07-29T11:30:20;24.40;99.90
24158;DHT22;12316;50.904;4.200;2023-07-29T11:32:47;24.70;99.90
24158;DHT22;12316;50.904;4.200;2023-07-29T11:35:16;25.10;99.90
24158;DHT22;12316;50.904;4.200;2023-07-29T11:37:45;25.10;99.90
24158;DHT22;12316;50.904;4.200;2023-07-29T11:40:22;24.90;99.90
24158;DHT22;12316;50.904;4.200;2023-07-29T11:42:50;24.90;99.90
24158;DHT22;12316;50.904;4.200;2023-07-29T11:45:17;24.70;99.90
24158;DHT22;12316;50.904;4.200;2023-07-29T11:47:42;24.60;99.90
24158;DHT22;12316;50.904;4.200;2023-07-29T11:50:10;24.30;99.90
24158;DHT22;12316;50.904;4.200;2023-07-29T11:52:44;24.20;99.90
24158;DHT22;12316;50.904;4.200;2023-07-29T11:55:12;24.00;99.90
24158;DHT22;12316;50.904;4.200;2023-07-29T11:57:38;24.00;99.90
24158;DHT22;12316;50.904;4.200;2023-07-29T12:00:06;24.00;99.90
24158;DHT22;12316;50.904;4.200;2023-07-29T12:02:34;24.10;99.90
24158;DHT22;12316;50.904;4.200;2023-07-29T12:05:02;24.00;99.90
24158;DHT22;12316;50.904;4.200;2023-07-29T12:07:29;24.00;99.90
24158;DHT22;12316;50.904;4.200;2023-07-29T12:09:55;23.70;99.90
24158;DHT22;12316;50.904;4.200;2023-07-29T12:12:22;23.70;99.90
24158;DHT22;12316;50.904;4.200;2023-07-29T12:14:48;23.50;99.90
24158;DHT22;12316;50.904;4.200;2023-07-29T12:17:14;23.40;99.90
24158;DHT22;12316;50.904;4.200;2023-07-29T12:19:41;23.50;99.90
24158;DHT22;12316;50.904;4.200;2023-07-29T12:22:08;23.50;99.90
24158;DHT22;12316;50.904;4.200;2023-07-29T12:24:36;23.50;99.90
24158;DHT22;12316;50.904;4.200;2023-07-29T12:27:02;23.60;99.90
24158;DHT22;12316;50.904;4.200;2023-07-29T12:29:28;23.70;99.90
24158;DHT22;12316;50.904;4.200;2023-07-29T12:32:02;23.90;99.90
24158;DHT22;12316;50.904;4.200;2023-07-29T12:34:29;24.10;99.90
24158;DHT22;12316;50.904;4.200;2023-07-29T12:36:57;24.10;99.90
24158;DHT22;12316;50.904;4.200;2023-07-29T12:39:25;24.20;99.90
24158;DHT22;12316;50.904;4.200;2023-07-29T12:41:53;24.50;99.90
24158;DHT22;12316;50.904;4.200;2023-07-29T12:44:18;25.00;99.90
24158;DHT22;12316;50.904;4.200;2023-07-29T12:46:44;25.40;99.90
24158;DHT22;12316;50.904;4.200;2023-07-29T12:49:10;25.40;99.90
24158;DHT22;12316;50.904;4.200;2023-07-29T12:51:36;25.50;99.90
24158;DHT22;12316;50.904;4.200;2023-07-29T12:54:03;25.70;99.90
24158;DHT22;12316;50.904;4.200;2023-07-29T12:56:30;25.70;99.90
24158;DHT22;12316;50.904;4.200;2023-07-29T12:58:58;25.60;99.90
24158;DHT22;12316;50.904;4.200;2023-07-29T13:01:27;25.90;99.90
24158;DHT22;12316;50.904;4.200;2023-07-29T13:03:53;25.90;99.90
24158;DHT22;12316;50.904;4.200;2023-07-29T13:06:20;26.00;99.90
24158;DHT22;12316;50.904;4.200;2023-07-29T13:08:46;26.00;99.90
24158;DHT22;12316;50.904;4.200;2023-07-29T13:11:12;25.70;99.90
24158;DHT22;12316;50.904;4.200;2023-07-29T13:13:38;25.60;99.90
24158;DHT22;12316;50.904;4.200;2023-07-29T13:16:04;25.90;99.90
24158;DHT22;12316;50.904;4.200;2023-07-29T13:18:30;26.10;99.90
24158;DHT22;12316;50.904;4.200;2023-07-29T13:20:55;26.20;99.90
24158;DHT22;12316;50.904;4.200;2023-07-29T13:23:21;26.40;99.90
24158;DHT22;12316;50.904;4.200;2023-07-29T13:25:47;26.40;99.90
24158;DHT22;12316;50.904;4.200;2023-07-29T13:28:13;26.40;99.90
24158;DHT22;12316;50.904;4.200;2023-07-29T13:30:39;26.30;99.90
24158;DHT22;12316;50.904;4.200;2023-07-29T13:33:06;26.20;99.90
24158;DHT22;12316;50.904;4.200;2023-07-29T13:35:32;26.10;99.90
24158;DHT22;12316;50.904;4.200;2023-07-29T13:37:57;26.00;99.90
24158;DHT22;12316;50.904;4.200;2023-07-29T13:40:23;25.90;99.90
24158;DHT22;12316;50.904;4.200;2023-07-29T13:42:49;25.70;99.90
24158;DHT22;12316;50.904;4.200;2023-07-29T13:45:15;25.80;99.90
24158;DHT22;12316;50.904;4.200;2023-07-29T13:47:41;25.70;99.90
24158;DHT22;12316;50.904;4.200;2023-07-29T13:50:07;25.70;99.90
24158;DHT22;12316;50.904;4.200;2023-07-29T13:52:33;25.90;99.90
24158;DHT22;12316;50.904;4.200;2023-07-29T13:54:59;26.00;99.90
24158;DHT22;12316;50.904;4.200;2023-07-29T13:57:25;25.80;99.90
24158;DHT22;12316;50.904;4.200;2023-07-29T13:59:50;25.60;99.90
24158;DHT22;12316;50.904;4.200;2023-07-29T14:02:16;25.80;99.90
24158;DHT22;12316;50.904;4.200;2023-07-29T14:04:41;25.90;99.90
24158;DHT22;12316;50.904;4.200;2023-07-29T14:07:07;26.30;99.90
24158;DHT22;12316;50.904;4.200;2023-07-29T14:09:33;26.60;99.90
24158;DHT22;12316;50.904;4.200;2023-07-29T14:11:58;26.70;99.90
24158;DHT22;12316;50.904;4.200;2023-07-29T14:14:24;26.70;99.90
24158;DHT22;12316;50.904;4.200;2023-07-29T14:16:49;26.70;99.90
24158;DHT22;12316;50.904;4.200;2023-07-29T14:19:15;26.40;99.90
24158;DHT22;12316;50.904;4.200;2023-07-29T14:21:40;26.10;99.90
24158;DHT22;12316;50.904;4.200;2023-07-29T14:24:06;26.00;99.90
24158;DHT22;12316;50.904;4.200;2023-07-29T14:26:32;26.10;99.90
24158;DHT22;12316;50.904;4.200;2023-07-29T14:28:57;26.30;99.90
24158;DHT22;12316;50.904;4.200;2023-07-29T14:31:23;26.30;99.90
24158;DHT22;12316;50.904;4.200;2023-07-29T14:33:48;26.30;99.90
24158;DHT22;12316;50.904;4.200;2023-07-29T14:36:15;26.20;99.90
24158;DHT22;12316;50.904;4.200;2023-07-29T14:38:41;26.20;99.90
24158;DHT22;12316;50.904;4.200;2023-07-29T14:41:07;26.00;99.90
24158;DHT22;12316;50.904;4.200;2023-07-29T14:43:33;26.10;99.90
24158;DHT22;12316;50.904;4.200;2023-07-29T14:45:59;25.90;99.90
24158;DHT22;12316;50.904;4.200;2023-07-29T14:48:25;25.70;99.90
24158;DHT22;12316;50.904;4.200;2023-07-29T14:50:50;25.40;99.90
24158;DHT22;12316;50.904;4.200;2023-07-29T14:53:16;25.20;99.90
24158;DHT22;12316;50.904;4.200;2023-07-29T14:55:41;25.10;99.90
24158;DHT22;12316;50.904;4.200;2023-07-29T14:58:07;25.00;99.90
24158;DHT22;12316;50.904;4.200;2023-07-29T15:00:33;24.90;99.90
24158;DHT22;12316;50.904;4.200;2023-07-29T15:02:59;25.00;99.90
24158;DHT22;12316;50.904;4.200;2023-07-29T15:05:25;25.00;99.90
24158;DHT22;12316;50.904;4.200;2023-07-29T15:07:51;24.80;99.90
24158;DHT22;12316;50.904;4.200;2023-07-29T15:10:17;24.60;99.90
24158;DHT22;12316;50.904;4.200;2023-07-29T15:12:43;24.70;99.90
24158;DHT22;12316;50.904;4.200;2023-07-29T15:15:10;24.90;99.90
24158;DHT22;12316;50.904;4.200;2023-07-29T15:17:35;24.80;99.90
24158;DHT22;12316;50.904;4.200;2023-07-29T15:20:02;24.80;99.90
24158;DHT22;12316;50.904;4.200;2023-07-29T15:22:31;24.60;99.90
24158;DHT22;12316;50.904;4.200;2023-07-29T15:25:00;24.40;99.90
24158;DHT22;12316;50.904;4.200;2023-07-29T15:27:30;24.30;99.90
24158;DHT22;12316;50.904;4.200;2023-07-29T15:29:56;24.20;99.90
24158;DHT22;12316;50.904;4.200;2023-07-29T15:32:22;24.40;99.90
24158;DHT22;12316;50.904;4.200;2023-07-29T15:34:48;24.60;99.90
24158;DHT22;12316;50.904;4.200;2023-07-29T15:37:14;24.80;99.90
24158;DHT22;12316;50.904;4.200;2023-07-29T15:39:40;24.90;99.90
24158;DHT22;12316;50.904;4.200;2023-07-29T15:42:06;24.70;99.90
24158;DHT22;12316;50.904;4.200;2023-07-29T15:44:32;24.60;99.90
24158;DHT22;12316;50.904;4.200;2023-07-29T15:46:57;24.60;99.90
24158;DHT22;12316;50.904;4.200;2023-07-29T15:49:23;24.50;99.90
24158;DHT22;12316;50.904;4.200;2023-07-29T15:51:49;24.50;99.90
24158;DHT22;12316;50.904;4.200;2023-07-29T15:54:15;24.60;99.90